Time;durP1;ratioP1;P1;durP2;ratioP2;P2;SDS_P1;SDS_P2;PMS_P1;PMS_P2;Temp;Humidity;BMP_temperature;BMP_pressure;BME280_temperature;BME280_humidity;BME280_pressure;Samples;Min_cycle;Max_cycle;Signal;HPM_P1;HPM_P2
2023/04/19 00:02:07;;;;;;;;;;;;;;;9.51;100.00;99228.78;4994039;28;878;-61
2023/04/19 00:04:36;;;;;;;;;;;;;;;9.51;100.00;99230.78;4993866;28;823;-61
2023/04/19 00:07:03;;;;;;;;;;;;;;;9.50;100.00;99230.00;4994583;28;780;-61
2023/04/19 00:09:29;;;;;;;;;;;;;;;9.49;100.00;99225.66;4993980;28;1339;-62
2023/04/19 00:11:56;;;;;;;;;;;;;;;9.50;100.00;99230.00;4993803;28;875;-61
2023/04/19 00:14:23;;;;;;;;;;;;;;;9.51;100.00;99226.03;4993829;28;827;-61
2023/04/19 00:16:50;;;;;;;;;;;;;;;9.53;100.00;99229.16;4993958;28;867;-61
2023/04/19 00:19:16;;;;;;;;;;;;;;;9.57;100.00;99224.41;4993686;28;831;-61
2023/04/19 00:21:43;;;;;;;;;;;;;;;9.61;100.00;99227.13;4993554;28;1915;-61
2023/04/19 00:24:10;;;;;;;;;;;;;;;9.65;100.00;99227.09;4976118;28;832;-61
2023/04/19 00:26:36;;;;;;;;;;;;;;;9.66;100.00;99223.91;4993095;28;818;-61
2023/04/19 00:29:03;;;;;;;;;;;;;;;9.66;100.00;99221.16;4993454;28;871;-61
2023/04/19 00:31:30;;;;;;;;;;;;;;;9.69;100.00;99219.56;4993435;28;795;-61
2023/04/19 00:33:56;;;;;;;;;;;;;;;9.71;100.00;99219.94;4993405;28;827;-61
2023/04/19 00:36:23;;;;;;;;;;;;;;;9.69;100.00;99223.09;4993426;28;878;-61
2023/04/19 00:38:49;;;;;;;;;;;;;;;9.68;100.00;99218.00;4993237;28;795;-61
2023/04/19 00:41:16;;;;;;;;;;;;;;;9.70;100.00;99219.13;4993204;28;1951;-61
2023/04/19 00:43:43;;;;;;;;;;;;;;;9.74;100.00;99216.34;4993227;28;875;-61
2023/04/19 00:46:10;;;;;;;;;;;;;;;9.75;100.00;99215.16;4993115;28;892;-61
2023/04/19 00:48:36;;;;;;;;;;;;;;;9.77;100.00;99218.28;4993086;28;839;-61
2023/04/19 00:51:03;;;;;;;;;;;;;;;9.77;100.00;99212.75;4993085;28;843;-61
2023/04/19 00:53:30;;;;;;;;;;;;;;;9.76;100.00;99216.72;4993056;28;823;-61
2023/04/19 00:55:59;;;;;;;;;;;;;;;9.72;100.00;99214.00;4993138;28;843;-61
2023/04/19 00:58:28;;;;;;;;;;;;;;;9.71;100.00;99217.19;4992863;28;890;-61
2023/04/19 01:00:54;;;;;;;;;;;;;;;9.73;100.00;99215.56;4992855;28;1906;-61
2023/04/19 01:03:21;;;;;;;;;;;;;;;9.72;100.00;99205.72;4975403;28;1627;-61
2023/04/19 01:05:48;;;;;;;;;;;;;;;9.69;100.00;99203.03;4992837;28;873;-61
2023/04/19 01:08:15;;;;;;;;;;;;;;;9.66;100.00;99204.59;4992872;28;992;-61
2023/04/19 01:10:42;;;;;;;;;;;;;;;9.65;100.00;99200.28;4992581;28;1227;-61
2023/04/19 01:13:08;;;;;;;;;;;;;;;9.67;100.00;99197.91;4992707;28;882;-61
2023/04/19 01:15:35;;;;;;;;;;;;;;;9.70;100.00;99197.06;4992648;28;858;-61
2023/04/19 01:18:01;;;;;;;;;;;;;;;9.71;100.00;99186.84;4992536;28;876;-60
2023/04/19 01:20:28;;;;;;;;;;;;;;;9.70;100.00;99188.78;4992366;28;1910;-60
2023/04/19 01:22:54;;;;;;;;;;;;;;;9.70;100.00;99185.25;4992619;28;811;-61
2023/04/19 01:25:21;;;;;;;;;;;;;;;9.73;100.00;99182.47;4992421;28;882;-60
2023/04/19 01:27:48;;;;;;;;;;;;;;;9.76;100.00;99176.09;4992450;28;807;-60
2023/04/19 01:30:15;;;;;;;;;;;;;;;9.78;100.00;99170.97;4992405;28;883;-60
2023/04/19 01:32:42;;;;;;;;;;;;;;;9.77;100.00;99176.88;4992355;28;1002;-60
2023/04/19 01:35:10;;;;;;;;;;;;;;;9.72;100.00;99169.84;4992393;28;922;-60
2023/04/19 01:37:36;;;;;;;;;;;;;;;9.70;100.00;99163.19;4991522;28;911;-60
2023/04/19 01:40:05;;;;;;;;;;;;;;;9.65;100.00;99169.16;4992307;28;1943;-60
2023/04/19 01:42:31;;;;;;;;;;;;;;;9.55;100.00;99163.31;4992144;28;1084;-60
2023/04/19 01:44:58;;;;;;;;;;;;;;;9.50;100.00;99163.78;4992293;28;854;-60
2023/04/19 01:47:25;;;;;;;;;;;;;;;9.52;100.00;99166.94;4992143;28;954;-60
2023/04/19 01:49:51;;;;;;;;;;;;;;;9.55;100.00;99162.56;4992139;28;907;-60
2023/04/19 01:52:18;;;;;;;;;;;;;;;9.56;100.00;99162.16;4992128;28;827;-60
2023/04/19 01:54:45;;;;;;;;;;;;;;;9.59;100.00;99164.06;4992112;28;831;-60
2023/04/19 01:57:10;;;;;;;;;;;;;;;9.62;100.00;99162.47;4992006;28;1060;-60
2023/04/19 01:59:37;;;;;;;;;;;;;;;9.64;100.00;99157.31;4992280;28;1886;-60
2023/04/19 02:02:06;;;;;;;;;;;;;;;9.67;100.00;99158.50;4992124;28;918;-60
2023/04/19 02:04:33;;;;;;;;;;;;;;;9.66;100.00;99163.22;4992033;28;849;-60
2023/04/19 02:07:00;;;;;;;;;;;;;;;9.68;100.00;99154.53;4992010;28;1194;-60
2023/04/19 02:09:26;;;;;;;;;;;;;;;9.69;100.00;99156.09;4992069;28;1276;-61
2023/04/19 02:11:52;;;;;;;;;;;;;;;9.69;100.00;99156.88;4991991;28;831;-60
2023/04/19 02:14:18;;;;;;;;;;;;;;;9.69;100.00;99162.41;4992064;28;873;-60
2023/04/19 02:16:45;;;;;;;;;;;;;;;9.65;100.00;99155.38;4991997;28;792;-60
2023/04/19 02:19:12;;;;;;;;;;;;;;;9.61;100.00;99156.16;4991878;28;869;-60
2023/04/19 02:21:39;;;;;;;;;;;;;;;9.56;100.00;99164.91;4991887;28;1914;-60
2023/04/19 02:24:06;;;;;;;;;;;;;;;9.54;100.00;99155.50;4991805;28;804;-60
2023/04/19 02:26:33;;;;;;;;;;;;;;;9.49;100.00;99162.22;4992179;28;859;-60
2023/04/19 02:29:00;;;;;;;;;;;;;;;9.48;100.00;99154.38;4992162;28;851;-60
2023/04/19 02:31:26;;;;;;;;;;;;;;;9.49;100.00;99153.16;4991760;28;915;-60
2023/04/19 02:33:53;;;;;;;;;;;;;;;9.49;100.00;99161.44;4974474;28;952;-60
2023/04/19 02:36:19;;;;;;;;;;;;;;;9.51;100.00;99156.28;4991987;28;862;-60
2023/04/19 02:38:46;;;;;;;;;;;;;;;9.51;100.00;99150.78;4991729;28;887;-60
2023/04/19 02:41:12;;;;;;;;;;;;;;;9.53;100.00;99149.16;4991636;28;1947;-60
2023/04/19 02:43:39;;;;;;;;;;;;;;;9.56;100.00;99151.13;4991827;28;870;-60
2023/04/19 02:46:06;;;;;;;;;;;;;;;9.57;100.00;99149.13;4991727;28;819;-60
2023/04/19 02:48:32;;;;;;;;;;;;;;;9.58;100.00;99150.69;4992606;28;975;-60
2023/04/19 02:50:58;;;;;;;;;;;;;;;9.56;100.00;99142.06;4995355;28;893;-60
2023/04/19 02:53:25;;;;;;;;;;;;;;;9.57;100.00;99157.41;4995168;28;907;-60
2023/04/19 02:55:52;;;;;;;;;;;;;;;9.57;100.00;99147.16;4995190;28;820;-60
2023/04/19 02:58:17;;;;;;;;;;;;;;;9.56;100.00;99150.34;4995260;28;842;-60
2023/04/19 03:00:44;;;;;;;;;;;;;;;9.55;100.00;99148.75;4995019;28;1949;-60
2023/04/19 03:03:11;;;;;;;;;;;;;;;9.54;100.00;99149.97;4995406;28;807;-60
2023/04/19 03:05:37;;;;;;;;;;;;;;;9.60;100.00;99145.53;4995036;28;970;-60
2023/04/19 03:08:04;;;;;;;;;;;;;;;9.65;100.00;99145.09;4994870;28;1192;-60
2023/04/19 03:10:30;;;;;;;;;;;;;;;9.73;100.00;99143.03;4995088;28;1194;-60
2023/04/19 03:12:57;;;;;;;;;;;;;;;9.78;100.00;99148.09;4994901;28;826;-60
2023/04/19 03:15:24;;;;;;;;;;;;;;;9.82;100.00;99149.63;4994933;28;867;-60
2023/04/19 03:17:51;;;;;;;;;;;;;;;9.85;100.00;99150.75;4995169;28;886;-60
2023/04/19 03:20:19;;;;;;;;;;;;;;;9.85;100.00;99148.00;4994908;28;1906;-60
2023/04/19 03:22:46;;;;;;;;;;;;;;;9.86;100.00;99146.81;4994669;28;867;-60
2023/04/19 03:25:12;;;;;;;;;;;;;;;9.86;100.00;99144.06;4994618;28;946;-60
2023/04/19 03:27:39;;;;;;;;;;;;;;;9.84;100.00;99142.91;4994602;28;917;-60
2023/04/19 03:30:06;;;;;;;;;;;;;;;9.86;100.00;99135.78;4994735;28;898;-59
2023/04/19 03:32:33;;;;;;;;;;;;;;;9.89;100.00;99140.47;4994490;28;962;-60
2023/04/19 03:34:59;;;;;;;;;;;;;;;9.91;100.00;99135.31;4994411;28;998;-59
2023/04/19 03:37:26;;;;;;;;;;;;;;;9.91;100.00;99134.53;4977090;28;1215;-59
2023/04/19 03:39:53;;;;;;;;;;;;;;;9.93;100.00;99135.69;4994686;28;1898;-60
2023/04/19 03:42:20;;;;;;;;;;;;;;;9.97;100.00;99141.94;4994690;28;831;-59
2023/04/19 03:44:47;;;;;;;;;;;;;;;9.99;100.00;99136.78;4994559;28;850;-59
2023/04/19 03:47:13;;;;;;;;;;;;;;;10.01;100.00;99134.41;4994643;28;884;-59
2023/04/19 03:49:40;;;;;;;;;;;;;;;10.02;100.00;99130.44;4994493;28;819;-59
2023/04/19 03:52:07;;;;;;;;;;;;;;;10.07;100.00;99131.97;4994571;28;824;-59
2023/04/19 03:54:33;;;;;;;;;;;;;;;10.11;100.00;99129.91;4994656;28;855;-60
2023/04/19 03:56:59;;;;;;;;;;;;;;;10.13;100.00;99133.03;4994806;28;756;-60
2023/04/19 03:59:26;;;;;;;;;;;;;;;10.14;100.00;99123.56;4994046;28;894;-60
2023/04/19 04:01:53;;;;;;;;;;;;;;;10.16;100.00;99128.69;4993270;28;1882;-59
2023/04/19 04:04:19;;;;;;;;;;;;;;;10.16;100.00;99137.75;4993878;28;931;-60
2023/04/19 04:06:46;;;;;;;;;;;;;;;10.18;100.00;99135.34;4994087;28;882;-60
2023/04/19 04:09:13;;;;;;;;;;;;;;;10.19;100.00;99136.13;4994254;28;1024;-59
2023/04/19 04:11:40;;;;;;;;;;;;;;;10.20;100.00;99138.47;4993638;28;1403;-60
2023/04/19 04:14:07;;;;;;;;;;;;;;;10.20;100.00;99137.72;4993808;28;811;-60
2023/04/19 04:16:34;;;;;;;;;;;;;;;10.22;100.00;99140.84;4993770;28;847;-60
2023/04/19 04:19:00;;;;;;;;;;;;;;;10.24;100.00;99130.13;4993621;28;847;-59
2023/04/19 04:21:27;;;;;;;;;;;;;;;10.25;100.00;99131.69;4993716;28;1969;-59
2023/04/19 04:23:54;;;;;;;;;;;;;;;10.27;100.00;99131.28;4993909;28;819;-59
2023/04/19 04:26:20;;;;;;;;;;;;;;;10.30;100.00;99133.25;4993736;28;955;-59
2023/04/19 04:28:47;;;;;;;;;;;;;;;10.31;100.00;99130.06;4993681;28;876;-59
2023/04/19 04:31:16;;;;;;;;;;;;;;;10.35;100.00;99135.56;4993444;28;827;-59
2023/04/19 04:33:44;;;;;;;;;;;;;;;10.32;100.00;99134.38;4993422;28;879;-59
2023/04/19 04:36:11;;;;;;;;;;;;;;;10.30;100.00;99136.78;4993583;28;863;-59
2023/04/19 04:38:37;;;;;;;;;;;;;;;10.31;100.00;99134.81;4993250;28;949;-59
2023/04/19 04:41:04;;;;;;;;;;;;;;;10.29;100.00;99140.75;4993243;28;1886;-59
2023/04/19 04:43:32;;;;;;;;;;;;;;;10.27;100.00;99140.34;4993159;28;902;-59
2023/04/19 04:45:59;;;;;;;;;;;;;;;10.25;100.00;99141.97;4993146;28;879;-59
2023/04/19 04:48:26;;;;;;;;;;;;;;;10.21;100.00;99153.06;4993181;28;842;-59
2023/04/19 04:50:53;;;;;;;;;;;;;;;10.19;100.00;99150.72;4992926;28;886;-59
2023/04/19 04:53:19;;;;;;;;;;;;;;;10.17;100.00;99157.84;4993081;28;885;-59
2023/04/19 04:55:46;;;;;;;;;;;;;;;10.13;100.00;99157.88;4993064;28;819;-59
2023/04/19 04:58:13;;;;;;;;;;;;;;;10.09;100.00;99151.66;4992967;28;898;-59
2023/04/19 05:00:39;;;;;;;;;;;;;;;10.03;100.00;99167.13;4993077;28;1910;-59
2023/04/19 05:03:06;;;;;;;;;;;;;;;10.00;100.00;99165.16;4992863;28;843;-59
2023/04/19 05:05:33;;;;;;;;;;;;;;;9.96;100.00;99165.25;4992844;28;835;-59
2023/04/19 05:08:00;;;;;;;;;;;;;;;9.91;100.00;99165.69;4992853;28;847;-59
2023/04/19 05:10:26;;;;;;;;;;;;;;;9.90;100.00;99158.59;4992640;28;1192;-59
2023/04/19 05:12:53;;;;;;;;;;;;;;;9.86;100.00;99159.81;4975365;28;1624;-59
2023/04/19 05:15:20;;;;;;;;;;;;;;;9.81;100.00;99159.13;4992615;28;923;-59
2023/04/19 05:17:47;;;;;;;;;;;;;;;9.84;100.00;99165.78;4992998;28;890;-58
2023/04/19 05:20:13;;;;;;;;;;;;;;;9.85;100.00;99161.03;4992407;28;1977;-59
2023/04/19 05:22:40;;;;;;;;;;;;;;;9.89;100.00;99161.78;4992650;28;866;-59
2023/04/19 05:25:09;;;;;;;;;;;;;;;9.95;100.00;99157.38;4992510;28;859;-59
2023/04/19 05:27:35;;;;;;;;;;;;;;;10.00;100.00;99160.44;4975058;28;2380;-59
2023/04/19 05:30:03;;;;;;;;;;;;;;;10.07;100.00;99148.53;4992441;28;874;-59
2023/04/19 05:32:30;;;;;;;;;;;;;;;10.17;100.00;99153.09;4992478;28;823;-59
2023/04/19 05:34:57;;;;;;;;;;;;;;;10.28;100.00;99155.72;4974884;28;1159;-59
2023/04/19 05:37:24;;;;;;;;;;;;;;;10.39;100.00;99159.16;4974920;28;1563;-59
2023/04/19 05:39:51;;;;;;;;;;;;;;;10.41;100.00;99162.28;4992501;28;1886;-59
2023/04/19 05:42:18;;;;;;;;;;;;;;;10.55;100.00;99164.03;4992202;28;899;-59
2023/04/19 05:44:44;;;;;;;;;;;;;;;10.50;100.00;99163.75;4992322;28;811;-60
2023/04/19 05:47:11;;;;;;;;;;;;;;;10.67;100.00;99162.69;4992269;28;816;-59
2023/04/19 05:49:38;;;;;;;;;;;;;;;10.94;100.00;99167.38;4992058;28;843;-59
2023/04/19 05:52:04;;;;;;;;;;;;;;;11.22;100.00;99164.16;4992188;28;815;-59
2023/04/19 05:54:34;;;;;;;;;;;;;;;11.32;100.00;99167.13;4992378;28;886;-59
2023/04/19 05:57:01;;;;;;;;;;;;;;;11.60;100.00;99169.34;4992197;28;890;-58
2023/04/19 05:59:27;;;;;;;;;;;;;;;11.87;100.00;99176.75;4992069;28;879;-58
2023/04/19 06:01:55;;;;;;;;;;;;;;;12.21;100.00;99170.94;4992026;28;1894;-59
2023/04/19 06:04:21;;;;;;;;;;;;;;;12.38;100.00;99170.97;4991961;28;919;-58
2023/04/19 06:06:48;;;;;;;;;;;;;;;12.36;100.00;99176.16;4992058;28;835;-58
2023/04/19 06:09:16;;;;;;;;;;;;;;;12.44;100.00;99172.81;4992209;28;929;-58
2023/04/19 06:11:44;;;;;;;;;;;;;;;12.55;100.00;99172.56;4991846;28;1519;-59
2023/04/19 06:14:12;;;;;;;;;;;;;;;12.57;100.00;99170.13;4992019;28;894;-58
2023/04/19 06:16:39;;;;;;;;;;;;;;;12.55;100.00;99182.88;4992142;28;838;-58
2023/04/19 06:19:08;;;;;;;;;;;;;;;12.28;100.00;99175.53;4992193;28;855;-58
2023/04/19 06:21:35;;;;;;;;;;;;;;;12.03;100.00;99187.94;4992011;28;1985;-58
2023/04/19 06:24:01;;;;;;;;;;;;;;;11.82;100.00;99180.00;4993471;28;808;-58
2023/04/19 06:26:28;;;;;;;;;;;;;;;11.69;100.00;99179.88;4996069;28;859;-58
2023/04/19 06:28:55;;;;;;;;;;;;;;;11.66;100.00;99177.97;4995987;28;804;-58
2023/04/19 06:31:22;;;;;;;;;;;;;;;11.77;100.00;99186.06;4996113;28;1012;-58
2023/04/19 06:33:49;;;;;;;;;;;;;;;11.99;100.00;99178.13;4995887;28;784;-58
2023/04/19 06:36:15;;;;;;;;;;;;;;;12.04;100.00;99181.19;4996108;28;851;-58
2023/04/19 06:38:43;;;;;;;;;;;;;;;11.98;100.00;99179.34;4978440;28;1222;-58
2023/04/19 06:41:09;;;;;;;;;;;;;;;12.09;100.00;99185.44;4995527;28;1879;-58
2023/04/19 06:43:38;;;;;;;;;;;;;;;12.07;100.00;99181.53;4995534;28;875;-58
2023/04/19 06:46:05;;;;;;;;;;;;;;;11.94;100.00;99189.72;4995689;28;901;-58
2023/04/19 06:48:33;;;;;;;;;;;;;;;11.75;100.00;99188.47;4995631;28;842;-58
2023/04/19 06:50:59;;;;;;;;;;;;;;;11.57;100.00;99186.81;4995450;28;823;-58
2023/04/19 06:53:26;;;;;;;;;;;;;;;11.53;100.00;99185.34;4995442;28;882;-59
2023/04/19 06:56:03;;;;;;;;;;;;;;;11.41;100.00;99182.00;4995331;28;824;-58
2023/04/19 07:01:31;;;;;;;;;;;;;;;11.40;100.00;99185.94;4995129;28;1959;-58
2023/04/19 07:03:57;;;;;;;;;;;;;;;11.47;100.00;99190.56;4995166;28;851;-58
2023/04/19 07:06:23;;;;;;;;;;;;;;;11.46;100.00;99197.31;4994985;28;920;-58
2023/04/19 07:08:50;;;;;;;;;;;;;;;11.44;100.00;99196.97;4995229;28;1326;-58
2023/04/19 07:11:16;;;;;;;;;;;;;;;11.50;100.00;99200.81;4995029;28;1343;-58
2023/04/19 07:13:43;;;;;;;;;;;;;;;11.62;100.00;99193.84;4995578;28;776;-58
2023/04/19 07:16:09;;;;;;;;;;;;;;;11.76;100.00;99199.13;4995070;28;866;-58
2023/04/19 07:18:36;;;;;;;;;;;;;;;11.80;100.00;99194.31;4995404;28;894;-58
2023/04/19 07:21:02;;;;;;;;;;;;;;;11.82;100.00;99199.41;4994754;28;1974;-58
2023/04/19 07:23:29;;;;;;;;;;;;;;;11.74;100.00;99192.47;4994811;28;859;-58
2023/04/19 07:25:56;;;;;;;;;;;;;;;11.76;100.00;99195.59;4995154;28;883;-58
2023/04/19 07:28:23;;;;;;;;;;;;;;;11.72;100.00;99198.41;4994828;28;887;-59
2023/04/19 07:30:49;;;;;;;;;;;;;;;11.61;100.00;99201.38;4994583;28;898;-58
2023/04/19 07:33:15;;;;;;;;;;;;;;;11.56;100.00;99206.63;4994901;28;823;-58
2023/04/19 07:35:42;;;;;;;;;;;;;;;11.43;100.00;99210.00;4993405;28;883;-58
2023/04/19 07:38:08;;;;;;;;;;;;;;;11.29;100.00;99206.69;4994592;28;835;-58
2023/04/19 07:40:36;;;;;;;;;;;;;;;11.28;100.00;99210.69;4994373;28;1882;-58
2023/04/19 07:43:03;;;;;;;;;;;;;;;11.23;100.00;99206.41;4994422;28;839;-58
2023/04/19 07:45:32;;;;;;;;;;;;;;;11.30;100.00;99208.28;4994363;28;922;-58
2023/04/19 07:47:58;;;;;;;;;;;;;;;11.29;100.00;99206.69;4994078;28;919;-58
2023/04/19 07:50:26;;;;;;;;;;;;;;;11.27;100.00;99203.59;4994381;28;811;-59
2023/04/19 07:52:52;;;;;;;;;;;;;;;11.30;100.00;99199.97;4994054;28;871;-59
2023/04/19 07:55:19;;;;;;;;;;;;;;;11.29;100.00;99201.16;4994449;28;840;-59
2023/04/19 07:57:47;;;;;;;;;;;;;;;11.31;100.00;99204.28;4994063;28;837;-59
2023/04/19 08:00:14;;;;;;;;;;;;;;;11.41;100.00;99214.41;4993979;28;1874;-58
2023/04/19 08:02:44;;;;;;;;;;;;;;;11.42;100.00;99216.75;4993954;28;847;-58
2023/04/19 08:05:12;;;;;;;;;;;;;;;11.37;100.00;99220.00;4994043;28;943;-59
2023/04/19 08:07:39;;;;;;;;;;;;;;;11.34;100.00;99220.06;4994174;28;831;-59
2023/04/19 08:10:06;;;;;;;;;;;;;;;11.27;100.00;99215.44;4976304;28;1204;-59
2023/04/19 08:12:32;;;;;;;;;;;;;;;11.29;100.00;99215.00;4993973;28;792;-59
2023/04/19 08:14:59;;;;;;;;;;;;;;;11.22;100.00;99216.72;4993815;28;811;-59
2023/04/19 08:17:26;;;;;;;;;;;;;;;11.14;100.00;99218.03;4993710;28;827;-59
2023/04/19 08:19:53;;;;;;;;;;;;;;;11.20;100.00;99219.13;4993755;28;1914;-59
2023/04/19 08:22:20;;;;;;;;;;;;;;;11.23;100.00;99215.50;4993845;28;867;-59
2023/04/19 08:24:48;;;;;;;;;;;;;;;11.24;100.00;99225.38;4993706;28;983;-59
2023/04/19 08:27:15;;;;;;;;;;;;;;;11.33;100.00;99224.81;4993610;28;882;-59
2023/04/19 08:29:42;;;;;;;;;;;;;;;11.33;100.00;99224.03;4993499;28;836;-59
2023/04/19 08:32:10;;;;;;;;;;;;;;;11.36;100.00;99229.50;4993458;28;1150;-59
2023/04/19 08:34:37;;;;;;;;;;;;;;;11.43;100.00;99223.84;4993520;28;820;-59
2023/04/19 08:37:03;;;;;;;;;;;;;;;11.48;100.00;99221.78;4993428;28;823;-59
2023/04/19 08:39:30;;;;;;;;;;;;;;;11.57;100.00;99222.81;4993677;28;910;-59
2023/04/19 08:42:01;;;;;;;;;;;;;;;11.67;100.00;99218.28;4993279;28;1934;-59
2023/04/19 08:44:30;;;;;;;;;;;;;;;11.62;100.00;99230.63;4993305;28;830;-59
2023/04/19 08:47:00;;;;;;;;;;;;;;;11.65;100.00;99218.72;4992708;28;843;-59
2023/04/19 08:49:27;;;;;;;;;;;;;;;11.70;100.00;99233.28;4993052;28;963;-59
2023/04/19 08:51:54;;;;;;;;;;;;;;;11.80;100.00;99232.28;4993047;28;883;-59
2023/04/19 08:54:20;;;;;;;;;;;;;;;12.10;100.00;99223.03;4993085;28;870;-59
2023/04/19 08:56:48;;;;;;;;;;;;;;;12.24;100.00;99221.94;4993040;28;866;-59
2023/04/19 08:59:14;;;;;;;;;;;;;;;12.31;100.00;99229.31;4975480;28;1171;-59
2023/04/19 09:01:41;;;;;;;;;;;;;;;12.32;100.00;99228.13;4992794;28;1894;-59
2023/04/19 09:04:07;;;;;;;;;;;;;;;12.51;100.00;99230.06;4993096;28;849;-59
2023/04/19 09:06:38;;;;;;;;;;;;;;;12.44;100.00;99231.00;4992899;28;815;-59
2023/04/19 09:09:30;;;;;;;;;;;;;;;12.38;100.00;99227.19;4992939;28;1032;-59
2023/04/19 09:11:59;;;;;;;;;;;;;;;12.34;100.00;99226.47;4990212;28;1763;-59
2023/04/19 09:14:26;;;;;;;;;;;;;;;12.06;100.00;99233.38;4992640;28;879;-59
2023/04/19 09:16:53;;;;;;;;;;;;;;;11.86;100.00;99241.63;4992474;28;840;-59
2023/04/19 09:19:19;;;;;;;;;;;;;;;11.65;100.00;99229.78;4992538;28;947;-59
2023/04/19 09:21:46;;;;;;;;;;;;;;;11.55;100.00;99229.97;4992599;28;1910;-59
2023/04/19 09:24:13;;;;;;;;;;;;;;;11.45;100.00;99235.25;4992665;28;917;-59
2023/04/19 09:26:52;;;;;;;;;;;;;;;11.56;100.00;99242.59;4992587;28;816;-59
2023/04/19 09:29:18;;;;;;;;;;;;;;;11.85;100.00;99240.88;4992504;28;827;-59
2023/04/19 09:31:55;;;;;;;;;;;;;;;12.12;100.00;99247.50;4992507;28;835;-59
2023/04/19 09:34:22;;;;;;;;;;;;;;;12.40;100.00;99252.47;4992457;28;835;-59
2023/04/19 09:36:49;;;;;;;;;;;;;;;12.72;100.00;99256.53;4992332;28;942;-58
2023/04/19 10:10:18;;;;;;;;;;;;;;;12.75;100.00;99236.25;5308201;22;1718;-58
2023/04/19 10:12:48;;;;;;;;;;;;;;;12.57;100.00;99245.00;5051522;28;913;-58
2023/04/19 10:15:15;;;;;;;;;;;;;;;12.37;100.00;99244.22;5051301;28;830;-58
2023/04/19 10:17:41;;;;;;;;;;;;;;;12.31;100.00;99243.97;5051212;28;838;-58
2023/04/19 10:20:10;;;;;;;;;;;;;;;12.30;100.00;99236.84;5051174;28;1973;-58
2023/04/19 10:22:37;;;;;;;;;;;;;;;12.41;100.00;99233.84;5051155;28;977;-58
2023/04/19 10:25:11;;;;;;;;;;;;;;;12.22;100.00;99240.97;5051093;28;929;-58
2023/04/19 10:27:40;;;;;;;;;;;;;;;12.22;100.00;99241.75;5051304;28;869;-58
2023/04/19 10:30:16;;;;;;;;;;;;;;;12.33;100.00;99238.78;5051192;28;877;-57
2023/04/19 10:32:44;;;;;;;;;;;;;;;12.52;100.00;99250.25;5051058;28;879;-56
2023/04/19 10:35:20;;;;;;;;;;;;;;;12.52;100.00;99242.72;5051345;28;837;-58
2023/04/19 10:38:08;;;;;;;;;;;;;;;12.44;100.00;99236.56;5051163;28;929;-58
2023/04/19 10:40:57;;;;;;;;;;;;;;;12.81;100.00;99239.31;5051011;28;1886;-57
2023/04/19 10:43:25;;;;;;;;;;;;;;;13.19;100.00;99236.81;5050974;28;903;-57
2023/04/19 10:45:52;;;;;;;;;;;;;;;13.27;100.00;99243.75;5050903;28;878;-58
2023/04/19 10:48:36;;;;;;;;;;;;;;;13.46;100.00;99233.78;5051155;28;794;-57
2023/04/19 10:51:06;;;;;;;;;;;;;;;13.95;100.00;99249.53;5033249;28;1207;-57
2023/04/19 10:53:50;;;;;;;;;;;;;;;14.05;100.00;99242.91;5050895;28;851;-57
2023/04/19 10:56:18;;;;;;;;;;;;;;;13.96;100.00;99237.22;5051189;28;822;-57
2023/04/19 10:59:13;;;;;;;;;;;;;;;14.16;100.00;99241.84;5051199;28;799;-58
2023/04/19 11:01:41;;;;;;;;;;;;;;;13.81;100.00;99245.16;5050665;28;1953;-57
2023/04/19 11:04:18;;;;;;;;;;;;;;;13.60;100.00;99246.50;5050858;28;834;-56
2023/04/19 11:07:06;;;;;;;;;;;;;;;13.68;100.00;99238.78;5050759;28;925;-57
2023/04/19 11:09:41;;;;;;;;;;;;;;;13.39;100.00;99244.28;5029488;28;1597;-57
2023/04/19 11:12:11;;;;;;;;;;;;;;;13.45;100.00;99248.09;5034332;28;862;-57
2023/04/19 11:14:41;;;;;;;;;;;;;;;13.37;100.00;99241.94;5034243;28;958;-58
2023/04/19 11:17:18;;;;;;;;;;;;;;;13.20;100.00;99248.69;5034365;28;810;-57
2023/04/19 11:19:46;;;;;;;;;;;;;;;13.12;100.00;99234.22;5034314;28;1136;-56
2023/04/19 11:22:12;;;;;;;;;;;;;;;13.19;100.00;99231.28;5034416;28;1981;-55
2023/04/19 11:24:44;;;;;;;;;;;;;;;13.27;100.00;99243.75;5034616;28;819;-55
2023/04/19 11:27:10;;;;;;;;;;;;;;;13.42;100.00;99237.84;5034176;28;819;-56
2023/04/19 11:29:37;;;;;;;;;;;;;;;13.59;100.00;99233.84;5034107;28;894;-57
2023/04/19 11:32:04;;;;;;;;;;;;;;;13.83;100.00;99234.41;5034086;28;818;-56
2023/04/19 11:34:39;;;;;;;;;;;;;;;13.87;100.00;99232.31;5033889;28;915;-56
2023/04/19 11:37:06;;;;;;;;;;;;;;;14.08;100.00;99224.56;5033815;28;898;-56
2023/04/19 11:42:35;;;;;;;;;;;;;;;15.26;100.00;99223.78;5033837;28;712;-56
2023/04/19 11:45:01;;;;;;;;;;;;;;;15.29;100.00;99214.50;5033752;28;814;-57
2023/04/19 11:47:28;;;;;;;;;;;;;;;15.66;100.00;99222.41;5033701;28;862;-56
2023/04/19 11:49:55;;;;;;;;;;;;;;;15.48;100.00;99223.06;5033755;28;966;-57
2023/04/19 11:52:23;;;;;;;;;;;;;;;15.68;100.00;99226.34;5033659;28;814;-57
2023/04/19 11:54:50;;;;;;;;;;;;;;;15.57;100.00;99225.91;5033595;28;873;-57
2023/04/19 11:57:38;;;;;;;;;;;;;;;15.06;100.00;99228.81;5033719;28;810;-55
2023/04/19 12:12:32;;;;;;;;;;;;;;;14.36;100.00;99223.00;5050685;28;1205;-58
2023/04/19 12:14:59;;;;;;;;;;;;;;;13.97;100.00;99221.34;5053212;28;843;-57
2023/04/19 12:17:25;;;;;;;;;;;;;;;13.64;100.00;99225.00;5053067;28;970;-57
2023/04/19 12:19:52;;;;;;;;;;;;;;;13.51;100.00;99226.94;5053107;28;818;-57
2023/04/19 12:22:19;;;;;;;;;;;;;;;13.52;100.00;99222.16;5052290;28;1938;-56
2023/04/19 12:24:46;;;;;;;;;;;;;;;13.38;100.00;99215.00;5051424;28;1200;-56
2023/04/19 12:27:17;;;;;;;;;;;;;;;13.22;100.00;99213.72;5052922;28;876;-58
2023/04/19 12:29:43;;;;;;;;;;;;;;;13.13;100.00;99198.94;5052855;28;920;-57
2023/04/19 12:32:10;;;;;;;;;;;;;;;13.14;100.00;99206.03;5052820;28;865;-57
2023/04/19 12:34:36;;;;;;;;;;;;;;;13.05;100.00;99198.31;5052728;28;857;-57
2023/04/19 12:37:03;;;;;;;;;;;;;;;12.93;100.00;99202.56;5052633;28;896;-57
2023/04/19 12:39:29;;;;;;;;;;;;;;;12.82;100.00;99213.94;5052606;28;869;-57
2023/04/19 12:41:56;;;;;;;;;;;;;;;12.73;100.00;99210.19;5052554;28;1881;-56
2023/04/19 12:44:23;;;;;;;;;;;;;;;12.70;100.00;99209.06;5052467;28;957;-56
2023/04/19 12:46:49;;;;;;;;;;;;;;;12.84;100.00;99205.97;5052542;28;810;-57
2023/04/19 12:49:17;;;;;;;;;;;;;;;12.88;100.00;99214.94;5052394;28;822;-55
2023/04/19 12:51:46;;;;;;;;;;;;;;;12.98;100.00;99218.69;5052327;28;898;-55
2023/04/19 12:54:13;;;;;;;;;;;;;;;12.95;100.00;99202.94;5034807;28;973;-57
2023/04/19 12:56:39;;;;;;;;;;;;;;;12.93;100.00;99212.88;5052318;28;892;-57
2023/04/19 12:59:06;;;;;;;;;;;;;;;12.88;100.00;99214.19;5052327;28;819;-56
2023/04/19 13:01:32;;;;;;;;;;;;;;;12.94;100.00;99209.69;5052182;28;1945;-55
2023/04/19 13:03:59;;;;;;;;;;;;;;;13.02;100.00;99219.38;5052248;28;811;-55
2023/04/19 13:06:26;;;;;;;;;;;;;;;13.02;100.00;99211.06;5052026;28;818;-57
2023/04/19 13:08:52;;;;;;;;;;;;;;;13.13;100.00;99216.34;5034351;28;1614;-56
2023/04/19 13:11:21;;;;;;;;;;;;;;;13.22;100.00;99224.84;5051890;28;1239;-55
2023/04/19 13:13:49;;;;;;;;;;;;;;;13.31;100.00;99224.25;5051975;28;942;-55
2023/04/19 13:16:16;;;;;;;;;;;;;;;13.31;100.00;99215.94;5051870;28;1108;-55
2023/04/19 13:18:42;;;;;;;;;;;;;;;13.36;100.00;99218.19;5052015;28;830;-55
2023/04/19 13:21:08;;;;;;;;;;;;;;;13.45;100.00;99220.34;5051839;28;1902;-55
2023/04/19 13:23:35;;;;;;;;;;;;;;;13.60;100.00;99220.75;5051885;28;811;-55
2023/04/19 13:26:01;;;;;;;;;;;;;;;13.56;100.00;99222.84;5051895;28;818;-55
2023/04/19 13:28:29;;;;;;;;;;;;;;;13.57;100.00;99219.63;5051807;28;806;-55
2023/04/19 13:30:55;;;;;;;;;;;;;;;13.73;100.00;99223.59;5051665;28;1230;-55
2023/04/19 13:33:22;;;;;;;;;;;;;;;13.86;100.00;99227.97;5050816;28;874;-55
2023/04/19 13:35:49;;;;;;;;;;;;;;;13.99;100.00;99232.78;5051487;28;927;-55
2023/04/19 13:38:15;;;;;;;;;;;;;;;13.80;100.00;99226.16;5051670;28;814;-55
2023/04/19 13:40:43;;;;;;;;;;;;;;;13.78;100.00;99225.81;5051630;28;1878;-55
2023/04/19 13:43:10;;;;;;;;;;;;;;;13.92;100.00;99219.09;5051497;28;831;-55
2023/04/19 13:45:36;;;;;;;;;;;;;;;13.92;100.00;99221.88;5051587;28;910;-55
2023/04/19 13:48:03;;;;;;;;;;;;;;;13.83;100.00;99223.28;5051537;28;819;-55
2023/04/19 13:50:29;;;;;;;;;;;;;;;13.80;100.00;99223.38;5051520;28;854;-55